Kezdőlap
METAR-TAF:

METAR-TAF

Repülőterek :

Fort Worth Spinks Airport

Fort Worth, Texas, Amerikai Egyesült Államok

földrajzi szélesség: 32-34N, földrajzi hosszúság: 097-18W, magasság: 213 m

Jelenlegi meteorológiai megfigyelések

A jelentés 15 perccel ezelõtt készült, 19:47 UTC
Dél-délkeleti szél 7 kt széllökések: 14 kt
Hőmérséklet 34°C
Páratartalom 41%
Légköri nyomás 1013 hPa
Látótávolság: 16.1 km
Szórványos felhőzet 5000 lábon

METAR: KFWS 151947Z 16007G14KT 10SM SCT050 34/19 A2991

Idő: 15:02 (20:02 UTC)


TAF: hiányzik

Meteorológiai megfigyelések és előrejelzések több, mint 4000 repülőtéren (METAR és TAF jelentéseket).

A térképen piros és sárga pontok jelzik az elérhető meteorológiai állomásokat.

Mozgassa az egeret a pont fölött, hogy megjelenjen az állomás neve.

Azután kattintson az időjárási megfigyelések és előrejelzések megtekintéséhez.

A térkép megváltoztatása: kattintson a fekete keresztel jelölt zöld gombra ráközelítéshez, a vonallal jelölt zöld gombra távolításhoz, vagy a zöld nyilakra a szomszédos térképek eléréséhez.


METAR-TAF: